SAMR/AFA METAR and TAF weather

Enter ICAO airport designator
Station Type Date Time Source
SAMR METAR 2023/02/01 16:55 UTC NOAA

SAMR 011655Z 18005KT 5000 SCT006 OVC010 18/17 Q1018


Station Type Date Time Source
SAMR Decoded METAR 2023/02/01 16:55 UTC NOAA

San Rafael Aerodrome, Argentina (SAMR) 34-35S 068-24W 748M
Feb 01, 2023 - 11:55 AM EST / 2023.02.01 1655 UTC
Wind: from the S (180 degrees) at 6 MPH (5 KT):0
Visibility: 3 mile(s):0
Sky conditions: overcast
Temperature: 64 F (18 C)
Dew Point: 62 F (17 C)
Relative Humidity: 93%
Pressure (altimeter): 30.06 in. Hg (1018 hPa)
ob: SAMR 011655Z 18005KT 5000 SCT006 OVC010 18/17 Q1018
cycle: 17

Station Type Date Time Source
SAMR TAF 2023/01/03 06:57 UTC NOAA

TAF TAF SAMR 030500Z 0306/0406 18005KT CAVOK TX31/0320Z TN15/0310Z
BECMG 0312/0315 07010KT

Example: see airport list